Time;durP1;ratioP1;P1;durP2;ratioP2;P2;SDS_P1;SDS_P2;PMS_P1;PMS_P2;Temp;Humidity;BMP_temperature;BMP_pressure;BME280_temperature;BME280_humidity;BME280_pressure;Samples;Min_cycle;Max_cycle;Signal;HPM_P1;HPM_P2
2024/04/05 00:00:17;;;;;;;8.47;4.33;;;9.90;99.90;;;;;;4162747;28;20095;-51
2024/04/05 00:02:19;;;;;;;5.80;4.07;;;9.90;99.90;;;;;;4164322;28;20037;-56
2024/04/05 00:04:20;;;;;;;7.07;4.47;;;9.90;99.90;;;;;;4162839;28;20053;-54
2024/04/05 00:06:21;;;;;;;7.07;4.87;;;9.90;99.90;;;;;;4164274;28;20049;-53
2024/04/05 00:08:25;;;;;;;8.50;5.93;;;9.90;99.90;;;;;;4162542;28;20046;-53
2024/04/05 00:10:26;;;;;;;8.17;5.43;;;9.90;99.90;;;;;;4163984;28;20765;-57
2024/04/05 00:12:28;;;;;;;7.73;5.63;;;9.70;99.90;;;;;;4162768;28;20041;-53
2024/04/05 00:14:29;;;;;;;9.83;6.10;;;9.50;99.90;;;;;;4163426;28;20033;-58
2024/04/05 00:16:30;;;;;;;12.90;6.20;;;9.40;99.90;;;;;;4163095;28;20045;-53
2024/04/05 00:18:35;;;;;;;9.87;5.60;;;9.40;99.90;;;;;;4163364;28;20041;-53
2024/04/05 00:20:36;;;;;;;7.93;5.83;;;9.30;99.90;;;;;;4163503;28;20072;-53
2024/04/05 00:22:37;;;;;;;11.90;5.83;;;9.30;99.90;;;;;;4162986;28;20493;-58
2024/04/05 00:24:38;;;;;;;8.57;5.70;;;9.20;99.90;;;;;;4163148;28;20029;-56
2024/04/05 00:26:39;;;;;;;12.43;6.27;;;9.20;99.90;;;;;;4162511;28;20033;-55
2024/04/05 00:28:41;;;;;;;12.13;6.30;;;9.20;99.90;;;;;;4163834;28;20029;-53
2024/04/05 00:30:42;;;;;;;11.20;7.10;;;9.20;99.90;;;;;;4162691;28;20037;-57
2024/04/05 00:32:43;;;;;;;11.93;6.80;;;9.10;99.90;;;;;;4163384;28;20037;-54
2024/04/05 00:34:45;;;;;;;10.77;6.20;;;9.10;99.90;;;;;;4162236;28;20083;-55
2024/04/05 00:36:46;;;;;;;11.17;7.27;;;9.00;99.90;;;;;;4163847;28;20034;-51
2024/04/05 00:38:47;;;;;;;12.17;6.87;;;9.00;99.90;;;;;;4162416;28;20433;-55
2024/04/05 00:40:49;;;;;;;17.50;7.77;;;9.00;99.90;;;;;;4163203;28;20107;-54
2024/04/05 00:42:50;;;;;;;15.60;7.13;;;9.10;99.90;;;;;;4161721;28;20041;-54
2024/04/05 00:44:52;;;;;;;11.10;6.47;;;9.10;99.90;;;;;;4163318;28;20033;-48
2024/04/05 00:46:53;;;;;;;10.00;6.23;;;9.10;99.90;;;;;;4162742;28;20037;-54
2024/04/05 00:48:54;;;;;;;9.50;6.40;;;9.20;99.90;;;;;;4162341;28;20130;-48
2024/04/05 00:50:56;;;;;;;11.33;6.50;;;9.20;99.90;;;;;;4162922;28;20079;-56
2024/04/05 00:53:01;;;;;;;11.20;6.90;;;9.20;99.90;;;;;;4162515;28;20466;-57
2024/04/05 00:55:03;;;;;;;9.27;6.20;;;9.20;99.90;;;;;;4162838;28;20448;-60
2024/04/05 00:57:05;;;;;;;9.47;6.13;;;9.20;99.90;;;;;;4161765;28;20091;-53
2024/04/05 00:59:07;;;;;;;11.30;6.30;;;9.30;99.90;;;;;;4162999;28;20111;-57
2024/04/05 01:01:09;;;;;;;10.40;5.77;;;9.30;99.90;;;;;;4162046;28;20037;-58
2024/04/05 01:03:10;;;;;;;11.07;6.73;;;9.30;99.90;;;;;;4162378;28;20543;-54
2024/04/05 01:05:14;;;;;;;12.80;5.40;;;9.30;99.90;;;;;;4159947;28;20144;-57
2024/04/05 01:07:15;;;;;;;9.77;6.20;;;9.30;99.90;;;;;;4163166;28;20095;-57
2024/04/05 01:09:16;;;;;;;9.77;6.30;;;9.30;99.90;;;;;;4161246;28;20095;-58
2024/04/05 01:11:18;;;;;;;8.80;6.40;;;9.30;99.90;;;;;;4163252;28;20465;-57
2024/04/05 01:13:19;;;;;;;11.50;6.70;;;9.30;99.90;;;;;;4161294;28;20065;-51
2024/04/05 01:15:20;;;;;;;9.47;6.43;;;9.30;99.90;;;;;;4162753;28;20099;-52
2024/04/05 01:17:21;;;;;;;11.90;6.63;;;9.30;99.90;;;;;;4161942;28;20549;-53
2024/04/05 01:19:24;;;;;;;12.37;6.27;;;9.30;99.90;;;;;;4162772;28;21010;-55
2024/04/05 01:21:26;;;;;;;13.87;6.93;;;9.30;99.90;;;;;;4161934;28;20543;-58
2024/04/05 01:23:29;;;;;;;10.17;6.37;;;9.30;99.90;;;;;;4162183;28;20102;-52
2024/04/05 01:25:30;;;;;;;14.57;6.83;;;9.30;99.90;;;;;;4162402;28;20466;-54
2024/04/05 01:27:32;;;;;;;8.37;6.40;;;9.30;99.90;;;;;;4160573;28;20033;-54
2024/04/05 01:29:33;;;;;;;11.80;5.50;;;9.30;99.90;;;;;;4162486;28;20160;-56
2024/04/05 01:31:34;;;;;;;11.67;5.97;;;9.30;99.90;;;;;;4161269;28;20045;-53
2024/04/05 01:33:35;;;;;;;12.20;6.43;;;9.20;99.90;;;;;;4162364;28;20046;-55
2024/04/05 01:35:38;;;;;;;13.07;6.13;;;9.10;99.90;;;;;;4161657;28;20431;-55
2024/04/05 01:37:40;;;;;;;16.90;6.83;;;9.10;99.90;;;;;;4162265;28;20420;-56
2024/04/05 01:39:41;;;;;;;9.77;6.33;;;9.00;99.90;;;;;;4161171;28;20038;-56
2024/04/05 01:41:42;;;;;;;10.87;6.33;;;9.10;99.90;;;;;;4162323;28;20088;-51
2024/04/05 01:43:43;;;;;;;13.93;7.40;;;9.10;99.90;;;;;;4161132;28;20433;-56
2024/04/05 01:45:45;;;;;;;14.37;7.10;;;9.10;99.90;;;;;;4162753;28;20527;-51
2024/04/05 01:47:46;;;;;;;11.17;5.93;;;9.10;99.90;;;;;;4160953;28;20045;-56
2024/04/05 01:49:47;;;;;;;10.40;6.30;;;9.20;99.90;;;;;;4161545;28;20193;-50
2024/04/05 01:51:48;;;;;;;11.30;6.23;;;9.20;99.90;;;;;;4161258;28;20115;-53
2024/04/05 01:53:50;;;;;;;10.33;5.37;;;9.30;99.90;;;;;;4161669;28;20022;-56
2024/04/05 01:55:51;;;;;;;12.07;5.43;;;9.30;99.90;;;;;;4161577;28;20095;-54
2024/04/05 01:57:52;;;;;;;11.63;5.30;;;9.40;99.90;;;;;;4161417;28;20037;-57
2024/04/05 01:59:54;;;;;;;9.20;5.03;;;9.40;99.90;;;;;;4162267;28;20101;-52
2024/04/05 02:01:56;;;;;;;8.17;4.73;;;9.40;99.90;;;;;;4160696;28;21054;-53
2024/04/05 02:03:57;;;;;;;7.90;4.87;;;9.30;99.90;;;;;;4162279;28;20493;-55
2024/04/05 02:05:58;;;;;;;5.50;4.07;;;9.20;99.90;;;;;;4161709;28;20033;-54
2024/04/05 02:07:59;;;;;;;10.77;5.07;;;9.10;99.90;;;;;;4161765;28;20433;-59
2024/04/05 02:10:01;;;;;;;5.40;4.07;;;9.00;99.90;;;;;;4160745;28;20095;-52
2024/04/05 02:12:03;;;;;;;9.27;5.30;;;8.90;99.90;;;;;;4161826;28;20049;-57
2024/04/05 02:14:04;;;;;;;7.17;5.17;;;8.90;99.90;;;;;;4159764;28;20033;-51
2024/04/05 02:16:06;;;;;;;10.50;6.17;;;8.90;99.90;;;;;;4162168;28;20029;-55
2024/04/05 02:18:09;;;;;;;9.17;4.50;;;8.80;99.90;;;;;;4160605;28;20033;-53
2024/04/05 02:20:11;;;;;;;7.43;5.20;;;8.80;99.90;;;;;;4161534;28;20034;-57
2024/04/05 02:22:12;;;;;;;8.97;5.10;;;8.80;99.90;;;;;;4160712;28;20091;-51
2024/04/05 02:24:14;;;;;;;9.97;5.47;;;8.80;99.90;;;;;;4161527;28;20037;-56
2024/04/05 02:26:15;;;;;;;6.23;4.57;;;8.80;99.90;;;;;;4161018;28;20049;-52
2024/04/05 02:28:16;;;;;;;13.17;5.77;;;8.90;99.90;;;;;;4160605;28;20079;-53
2024/04/05 02:30:20;;;;;;;8.87;6.00;;;8.90;99.90;;;;;;4161156;28;20049;-55
2024/04/05 02:32:21;;;;;;;11.20;5.00;;;8.90;99.90;;;;;;4160346;28;20037;-54
2024/04/05 02:34:23;;;;;;;7.90;5.37;;;8.90;99.90;;;;;;4161827;28;20037;-53
2024/04/05 02:36:24;;;;;;;8.73;5.13;;;8.90;99.90;;;;;;4161047;28;20813;-56
2024/04/05 02:38:26;;;;;;;8.30;4.53;;;9.00;99.90;;;;;;4161252;28;20103;-51
2024/04/05 02:40:27;;;;;;;10.27;4.83;;;9.00;99.90;;;;;;4160266;28;20034;-53
2024/04/05 02:42:29;;;;;;;8.10;5.13;;;9.00;99.90;;;;;;4161311;28;20387;-54
2024/04/05 02:44:30;;;;;;;11.03;5.57;;;9.00;99.90;;;;;;4160471;28;20425;-51
2024/04/05 02:46:31;;;;;;;12.33;5.63;;;9.10;99.90;;;;;;4161225;28;20099;-52
2024/04/05 02:48:33;;;;;;;11.63;6.03;;;9.00;99.90;;;;;;4160337;28;20083;-54
2024/04/05 02:50:34;;;;;;;11.07;5.77;;;9.00;99.90;;;;;;4161126;28;20437;-56
2024/04/05 02:52:35;;;;;;;9.27;5.93;;;9.00;99.90;;;;;;4160047;28;20091;-54
2024/04/05 02:54:36;;;;;;;10.33;6.10;;;8.90;99.90;;;;;;4160849;28;20064;-54
2024/04/05 02:56:37;;;;;;;13.67;5.90;;;8.80;99.90;;;;;;4160463;28;20033;-52
2024/04/05 02:58:39;;;;;;;10.83;6.07;;;8.80;99.90;;;;;;4160392;28;20647;-53
2024/04/05 03:00:42;;;;;;;7.80;5.73;;;8.80;99.90;;;;;;4160671;28;20041;-59
2024/04/05 03:02:44;;;;;;;15.40;6.50;;;8.70;99.90;;;;;;4160099;28;20115;-52
2024/04/05 03:04:45;;;;;;;9.87;5.43;;;8.80;99.90;;;;;;4161321;28;20147;-54
2024/04/05 03:06:46;;;;;;;10.83;6.10;;;8.80;99.90;;;;;;4160793;28;20447;-51
2024/04/05 03:08:48;;;;;;;7.73;5.00;;;8.80;99.90;;;;;;4160800;28;20416;-52
2024/04/05 03:10:49;;;;;;;8.17;5.40;;;8.80;99.90;;;;;;4160161;28;20087;-51
2024/04/05 03:12:51;;;;;;;10.20;5.63;;;8.80;99.90;;;;;;4160935;28;20041;-56
2024/04/05 03:14:52;;;;;;;10.33;5.97;;;8.80;99.90;;;;;;4159784;28;20075;-55
2024/04/05 03:16:54;;;;;;;10.50;6.17;;;8.80;99.90;;;;;;4161345;28;20133;-55
2024/04/05 03:18:55;;;;;;;10.27;5.47;;;8.80;99.90;;;;;;4160066;28;20497;-55
2024/04/05 03:20:56;;;;;;;9.77;5.67;;;8.80;99.90;;;;;;4161265;28;20037;-51
2024/04/05 03:22:57;;;;;;;10.63;5.33;;;8.80;99.90;;;;;;4159988;28;20075;-51
2024/04/05 03:24:59;;;;;;;10.47;6.30;;;8.70;99.90;;;;;;4159853;28;20083;-53
2024/04/05 03:27:00;;;;;;;12.70;5.07;;;8.70;99.90;;;;;;4159743;28;20076;-50
2024/04/05 03:29:02;;;;;;;10.03;5.60;;;8.70;99.90;;;;;;4159934;28;20092;-52
2024/04/05 03:31:05;;;;;;;10.97;6.00;;;8.70;99.90;;;;;;4160255;28;20083;-56
2024/04/05 03:33:07;;;;;;;16.67;6.17;;;8.60;99.90;;;;;;4159728;28;20590;-54
2024/04/05 03:35:09;;;;;;;12.47;6.20;;;8.60;99.90;;;;;;4160426;28;20446;-54
2024/04/05 03:37:10;;;;;;;12.70;5.43;;;8.60;99.90;;;;;;4160177;28;20084;-61
2024/04/05 03:39:13;;;;;;;8.83;4.93;;;8.60;99.90;;;;;;4160403;28;20310;-53
2024/04/05 03:41:14;;;;;;;17.63;6.03;;;8.60;99.90;;;;;;4159952;28;20033;-54
2024/04/05 03:43:15;;;;;;;10.57;5.20;;;8.60;99.90;;;;;;4160624;28;20029;-54
2024/04/05 03:45:17;;;;;;;8.87;5.03;;;8.50;99.90;;;;;;4159455;28;20079;-54
2024/04/05 03:47:18;;;;;;;7.00;4.87;;;8.60;99.90;;;;;;4160505;28;20421;-52
2024/04/05 03:49:19;;;;;;;11.43;5.10;;;8.50;99.90;;;;;;4159739;28;20096;-56
2024/04/05 03:51:20;;;;;;;9.80;5.80;;;8.60;99.90;;;;;;4161177;28;20420;-50
2024/04/05 03:53:22;;;;;;;12.27;5.43;;;8.50;99.90;;;;;;4159197;28;20489;-52
2024/04/05 03:55:23;;;;;;;8.83;5.90;;;8.60;99.90;;;;;;4160231;28;20042;-51
2024/04/05 03:57:24;;;;;;;12.07;5.80;;;8.50;99.90;;;;;;4159780;28;20014;-54
2024/04/05 03:59:28;;;;;;;8.33;5.47;;;8.50;99.90;;;;;;4159681;28;20046;-53
2024/04/05 04:01:29;;;;;;;9.30;5.83;;;8.50;99.90;;;;;;4159622;28;20551;-59
2024/04/05 04:03:31;;;;;;;10.03;5.10;;;8.40;99.90;;;;;;4159594;28;20503;-56
2024/04/05 04:05:32;;;;;;;8.83;5.97;;;8.30;99.90;;;;;;4159876;28;20181;-52
2024/04/05 04:07:33;;;;;;;10.70;6.63;;;8.20;99.90;;;;;;4159572;28;20099;-54
2024/04/05 04:09:34;;;;;;;12.73;5.70;;;8.10;99.90;;;;;;4160335;28;20463;-52
2024/04/05 04:11:36;;;;;;;6.07;4.83;;;8.10;99.90;;;;;;4158981;28;20455;-56
2024/04/05 04:13:37;;;;;;;9.40;5.83;;;8.00;99.90;;;;;;4160388;28;20033;-56
2024/04/05 04:15:38;;;;;;;9.53;5.77;;;8.00;99.90;;;;;;4159252;28;20060;-55
2024/04/05 04:17:40;;;;;;;7.47;5.20;;;8.00;99.90;;;;;;4160149;28;20049;-54
2024/04/05 04:19:41;;;;;;;8.83;4.87;;;8.00;99.90;;;;;;4158738;28;20076;-57
2024/04/05 04:21:43;;;;;;;10.63;6.57;;;8.00;99.90;;;;;;4160370;28;20033;-57
2024/04/05 04:23:44;;;;;;;14.07;6.27;;;8.10;99.90;;;;;;4159134;28;20030;-56
2024/04/05 04:25:46;;;;;;;12.10;6.90;;;8.20;99.90;;;;;;4160397;28;20026;-59
2024/04/05 04:27:48;;;;;;;17.67;6.77;;;8.20;99.90;;;;;;4159421;28;20054;-54
2024/04/05 04:29:49;;;;;;;12.73;6.40;;;8.30;99.90;;;;;;4159536;28;20497;-55
2024/04/05 04:31:51;;;;;;;17.60;7.03;;;8.40;99.90;;;;;;4159393;28;20045;-54
2024/04/05 04:33:53;;;;;;;11.47;6.27;;;8.40;99.90;;;;;;4159292;28;20091;-55
2024/04/05 04:35:55;;;;;;;11.40;6.43;;;8.40;99.90;;;;;;4160275;28;20454;-55
2024/04/05 04:37:56;;;;;;;18.60;7.70;;;8.40;99.90;;;;;;4161343;28;20091;-56
2024/04/05 04:39:58;;;;;;;11.03;7.00;;;8.40;99.90;;;;;;4162136;28;20100;-56
2024/04/05 04:41:59;;;;;;;14.03;7.50;;;8.50;99.90;;;;;;4161741;28;20560;-55
2024/04/05 04:44:00;;;;;;;16.60;7.60;;;8.50;99.90;;;;;;4162904;28;20041;-56
2024/04/05 04:46:02;;;;;;;9.80;6.17;;;8.50;99.90;;;;;;4162198;28;20030;-56
2024/04/05 04:48:04;;;;;;;15.07;6.67;;;8.50;99.90;;;;;;4162858;28;20046;-55
2024/04/05 04:50:05;;;;;;;10.00;5.47;;;8.60;99.90;;;;;;4161603;28;20482;-55
2024/04/05 04:52:07;;;;;;;12.10;5.97;;;8.60;99.90;;;;;;4163320;28;20029;-55
2024/04/05 04:54:08;;;;;;;16.37;5.90;;;8.60;99.90;;;;;;4161703;28;20088;-55
2024/04/05 04:56:12;;;;;;;11.63;6.47;;;8.60;99.90;;;;;;4163263;28;20179;-58
2024/04/05 04:58:17;;;;;;;16.83;6.30;;;8.60;99.90;;;;;;4161550;28;20111;-57
2024/04/05 05:00:18;;;;;;;11.00;6.50;;;8.70;99.90;;;;;;4162511;28;20091;-57
2024/04/05 05:02:20;;;;;;;13.20;6.17;;;8.70;99.90;;;;;;4161612;28;20049;-54
2024/04/05 05:04:22;;;;;;;14.33;5.10;;;8.70;99.90;;;;;;4162161;28;20064;-59
2024/04/05 05:06:23;;;;;;;10.67;5.40;;;8.70;99.90;;;;;;4162184;28;20516;-57
2024/04/05 05:08:25;;;;;;;10.83;5.30;;;8.60;99.90;;;;;;4161930;28;20092;-57
2024/04/05 05:10:27;;;;;;;11.97;5.23;;;8.60;99.90;;;;;;4162560;28;20087;-55
2024/04/05 05:12:28;;;;;;;9.87;4.90;;;8.60;99.90;;;;;;4162077;28;20426;-51
2024/04/05 05:14:29;;;;;;;10.57;4.63;;;8.70;99.90;;;;;;4178978;28;20099;-59
2024/04/05 05:16:30;;;;;;;9.10;4.73;;;8.70;99.90;;;;;;4177099;28;20029;-57
2024/04/05 05:18:32;;;;;;;9.33;3.80;;;8.80;99.90;;;;;;4178001;28;20251;-52
2024/04/05 05:20:33;;;;;;;7.77;4.47;;;8.90;99.90;;;;;;4178011;28;20041;-52
2024/04/05 05:22:34;;;;;;;10.53;4.13;;;9.00;99.90;;;;;;4179253;28;20102;-56
2024/04/05 05:24:35;;;;;;;8.20;3.67;;;9.00;99.90;;;;;;4177274;28;20025;-58
2024/04/05 05:26:37;;;;;;;6.70;3.83;;;9.10;99.90;;;;;;4178020;28;20094;-54
2024/04/05 05:28:38;;;;;;;8.00;3.30;;;9.10;99.90;;;;;;4177285;28;20063;-57
2024/04/05 05:30:39;;;;;;;8.50;3.30;;;9.20;99.90;;;;;;4178754;28;20091;-57
2024/04/05 05:32:41;;;;;;;7.63;3.47;;;9.20;99.90;;;;;;4177433;28;20110;-53
2024/04/05 05:34:42;;;;;;;9.37;2.63;;;9.30;99.90;;;;;;4178473;28;20029;-56
2024/04/05 05:36:43;;;;;;;4.93;3.30;;;9.30;99.90;;;;;;4178181;28;20443;-56
2024/04/05 05:38:45;;;;;;;8.50;3.53;;;9.40;99.90;;;;;;4177854;28;20359;-58
2024/04/05 05:40:46;;;;;;;4.77;2.67;;;9.40;99.90;;;;;;4177737;28;20033;-57
2024/04/05 05:42:47;;;;;;;5.27;2.73;;;9.50;99.90;;;;;;4177240;28;20049;-56
2024/04/05 05:44:48;;;;;;;5.57;2.67;;;9.60;99.90;;;;;;4178575;28;20082;-56
2024/04/05 05:46:51;;;;;;;3.57;2.17;;;9.60;99.90;;;;;;4176977;28;20090;-55
2024/04/05 05:48:52;;;;;;;6.20;3.43;;;9.70;99.90;;;;;;4178083;28;20090;-54
2024/04/05 05:50:53;;;;;;;13.80;6.03;;;9.70;99.90;;;;;;4176710;28;20103;-57
2024/04/05 05:52:55;;;;;;;5.80;3.80;;;9.80;99.90;;;;;;4178663;28;20094;-58
2024/04/05 05:54:56;;;;;;;8.77;3.10;;;9.80;99.90;;;;;;4177842;28;20123;-58
2024/04/05 05:56:57;;;;;;;5.23;2.63;;;9.70;99.90;;;;;;4178311;28;20041;-56
2024/04/05 05:58:58;;;;;;;2.70;2.20;;;9.80;99.90;;;;;;4176760;28;20041;-57
2024/04/05 06:01:07;;;;;;;5.87;2.80;;;9.80;99.90;;;;;;4177844;28;20045;-53
2024/04/05 06:03:08;;;;;;;5.20;2.47;;;9.80;99.90;;;;;;4177125;28;20071;-57
2024/04/05 06:05:11;;;;;;;4.50;2.00;;;9.80;99.90;;;;;;4177706;28;20033;-58
2024/04/05 06:07:12;;;;;;;3.17;2.10;;;9.80;99.90;;;;;;4177998;28;20020;-56
2024/04/05 06:09:14;;;;;;;4.40;2.70;;;9.90;99.90;;;;;;4177194;28;20057;-56
2024/04/05 06:11:15;;;;;;;4.30;2.50;;;9.90;99.90;;;;;;4177034;28;20532;-56
2024/04/05 06:13:16;;;;;;;4.43;2.53;;;9.90;99.90;;;;;;4176993;28;20049;-56
2024/04/05 06:15:17;;;;;;;3.10;2.47;;;10.00;99.90;;;;;;4177506;28;20452;-56
2024/04/05 06:17:19;;;;;;;3.83;2.43;;;10.00;99.90;;;;;;4176832;28;20079;-57
2024/04/05 06:19:20;;;;;;;6.70;3.17;;;10.10;99.90;;;;;;4177396;28;20067;-54
2024/04/05 06:21:22;;;;;;;5.07;2.30;;;10.20;99.90;;;;;;4176484;28;20048;-57
2024/04/05 06:23:25;;;;;;;8.27;2.57;;;10.40;99.90;;;;;;4178114;28;20102;-55
2024/04/05 06:25:27;;;;;;;7.93;3.47;;;10.50;99.90;;;;;;4176197;28;20090;-56
2024/04/05 06:27:29;;;;;;;4.87;2.30;;;10.70;99.90;;;;;;4177600;28;20087;-56
2024/04/05 06:29:30;;;;;;;4.57;2.07;;;10.80;99.90;;;;;;4176492;28;20087;-57
2024/04/05 06:31:31;;;;;;;6.80;2.67;;;10.80;99.90;;;;;;4177757;28;20037;-58
2024/04/05 06:33:32;;;;;;;3.63;2.60;;;11.00;99.90;;;;;;4176600;28;20128;-56
2024/04/05 06:35:34;;;;;;;4.77;1.90;;;11.20;99.90;;;;;;4177102;28;20056;-56
2024/04/05 06:37:35;;;;;;;5.30;2.43;;;12.10;99.90;;;;;;4176920;28;20547;-59
2024/04/05 06:39:40;;;;;;;2.17;1.87;;;13.00;99.90;;;;;;4177534;28;20029;-57
2024/04/05 06:41:41;;;;;;;2.77;1.80;;;14.00;99.90;;;;;;4176643;28;20094;-58
2024/04/05 06:43:42;;;;;;;3.13;1.60;;;14.50;99.90;;;;;;4177220;28;20029;-55
2024/04/05 06:45:55;;;;;;;2.80;1.57;;;14.70;99.90;;;;;;4176942;28;20132;-57
2024/04/05 06:47:56;;;;;;;8.20;2.03;;;14.90;99.90;;;;;;4177088;28;20095;-54
2024/04/05 06:49:57;;;;;;;8.80;3.10;;;14.90;99.90;;;;;;4176834;28;20161;-59
2024/04/05 06:52:06;;;;;;;6.97;2.80;;;14.30;99.90;;;;;;4176558;28;20075;-59
2024/04/05 06:54:07;;;;;;;7.90;2.23;;;13.80;99.90;;;;;;4177405;28;20074;-57
2024/04/05 06:56:10;;;;;;;7.00;2.93;;;13.30;99.90;;;;;;4176132;28;20551;-56
2024/04/05 06:58:12;;;;;;;5.37;2.63;;;13.00;99.90;;;;;;4177104;28;20041;-56
2024/04/05 07:00:15;;;;;;;10.27;3.50;;;12.70;99.90;;;;;;4176218;28;20032;-57
2024/04/05 07:02:20;;;;;;;5.87;3.80;;;12.60;99.90;;;;;;4177899;28;20037;-52
2024/04/05 07:04:23;;;;;;;10.33;3.37;;;12.50;99.90;;;;;;4175993;28;20045;-55
2024/04/05 07:06:24;;;;;;;6.87;4.20;;;12.40;99.90;;;;;;4177688;28;20110;-56
2024/04/05 07:08:28;;;;;;;7.70;4.23;;;12.30;99.90;;;;;;4176031;28;20456;-58
2024/04/05 07:10:29;;;;;;;10.30;3.80;;;12.30;99.90;;;;;;4176713;28;20481;-52
2024/04/05 07:12:31;;;;;;;7.07;3.23;;;12.40;99.90;;;;;;4176110;28;20037;-57
2024/04/05 07:14:32;;;;;;;7.73;4.37;;;12.50;99.90;;;;;;4177323;28;20087;-59
2024/04/05 07:16:33;;;;;;;11.60;5.30;;;12.50;99.90;;;;;;4175986;28;20045;-58
2024/04/05 07:18:34;;;;;;;8.07;4.10;;;12.50;99.90;;;;;;4176682;28;20079;-58
2024/04/05 07:20:38;;;;;;;9.33;3.27;;;12.60;99.90;;;;;;4176616;28;20410;-56
2024/04/05 07:22:40;;;;;;;13.50;4.80;;;12.70;99.90;;;;;;4176222;28;20090;-58
2024/04/05 07:24:45;;;;;;;10.33;3.83;;;12.80;99.90;;;;;;4176556;28;20094;-56
2024/04/05 07:26:46;;;;;;;12.73;4.40;;;13.00;99.90;;;;;;4176313;28;20041;-56
2024/04/05 07:28:49;;;;;;;9.20;3.80;;;13.20;99.90;;;;;;4176583;28;20094;-57
2024/04/05 07:30:50;;;;;;;7.87;3.47;;;13.30;99.90;;;;;;4175742;28;20049;-57
2024/04/05 07:32:51;;;;;;;13.13;3.97;;;13.40;99.90;;;;;;4176867;28;20173;-56
2024/04/05 07:34:53;;;;;;;15.23;4.27;;;13.50;99.90;;;;;;4176059;28;20029;-58
2024/04/05 07:36:54;;;;;;;10.63;4.47;;;13.60;99.90;;;;;;4177562;28;20025;-58
2024/04/05 07:38:55;;;;;;;6.90;4.13;;;13.60;99.90;;;;;;4176379;28;21075;-52
2024/04/05 07:41:07;;;;;;;6.73;3.50;;;13.60;99.90;;;;;;4177150;28;20477;-53
2024/04/05 07:43:08;;;;;;;7.80;3.67;;;13.70;99.90;;;;;;4176072;28;20477;-54
2024/04/05 07:45:09;;;;;;;12.73;3.60;;;13.90;99.90;;;;;;4177094;28;20429;-56
2024/04/05 07:47:10;;;;;;;8.33;3.03;;;14.20;99.90;;;;;;4175158;28;20025;-57
2024/04/05 07:49:12;;;;;;;8.48;3.28;;;14.50;99.90;;;;;;4176873;28;20029;-56
2024/04/05 07:51:13;;;;;;;4.93;2.97;;;14.90;99.90;;;;;;4175202;28;20052;-52
2024/04/05 07:53:14;;;;;;;5.93;3.33;;;15.10;99.90;;;;;;4176404;28;20037;-57
2024/04/05 07:55:16;;;;;;;8.63;2.70;;;15.60;99.90;;;;;;4176623;28;20029;-57
2024/04/05 07:57:18;;;;;;;8.02;3.63;;;15.70;99.90;;;;;;4176252;28;20025;-57
2024/04/05 07:59:20;;;;;;;6.50;3.22;;;16.00;99.90;;;;;;4176258;28;20033;-56
2024/04/05 08:01:21;;;;;;;6.82;3.67;;;16.40;99.90;;;;;;4175521;28;20049;-59
2024/04/05 08:03:23;;;;;;;7.80;2.92;;;16.70;99.90;;;;;;4176962;28;20103;-56
2024/04/05 08:05:24;;;;;;;7.10;2.83;;;17.00;99.90;;;;;;4175929;28;20503;-55
2024/04/05 08:07:25;;;;;;;7.40;2.38;;;17.40;99.90;;;;;;4177171;28;20029;-57
2024/04/05 08:09:27;;;;;;;6.13;2.83;;;17.60;99.90;;;;;;4176006;28;20118;-56
2024/04/05 08:11:28;;;;;;;5.78;2.67;;;17.60;99.90;;;;;;4176873;28;20037;-53
2024/04/05 08:13:29;;;;;;;4.97;2.60;;;17.60;99.90;;;;;;4178440;28;20041;-53
2024/04/05 08:15:31;;;;;;;4.03;2.50;;;17.80;99.90;;;;;;4179307;28;20086;-56
2024/04/05 08:17:32;;;;;;;6.07;2.38;;;17.90;99.90;;;;;;4178722;28;20477;-56
2024/04/05 08:19:33;;;;;;;5.47;2.20;;;18.00;99.90;;;;;;4179897;28;20045;-51
2024/04/05 08:21:35;;;;;;;2.83;1.80;;;18.00;99.90;;;;;;4178993;28;20435;-54
2024/04/05 08:23:37;;;;;;;4.55;1.83;;;18.10;99.90;;;;;;4179014;28;20473;-54
2024/04/05 08:25:39;;;;;;;3.90;1.80;;;18.30;99.90;;;;;;4178473;28;20091;-56
2024/04/05 08:27:44;;;;;;;3.58;2.10;;;18.40;99.90;;;;;;4179005;28;20041;-55
2024/04/05 08:29:45;;;;;;;4.03;1.55;;;18.50;99.90;;;;;;4178833;28;20481;-56
2024/04/05 08:31:47;;;;;;;7.10;1.90;;;18.40;99.90;;;;;;4178867;28;20148;-60
2024/04/05 08:33:48;;;;;;;4.03;2.00;;;18.50;99.90;;;;;;4179139;28;20041;-58
2024/04/05 08:35:53;;;;;;;13.32;1.90;;;18.90;99.90;;;;;;4178415;28;20090;-56
2024/04/05 08:38:01;;;;;;;3.33;2.17;;;19.00;99.90;;;;;;4180319;28;20033;-57
2024/04/05 08:40:03;;;;;;;6.55;1.90;;;19.00;99.90;;;;;;4178678;28;20090;-57
2024/04/05 08:42:12;;;;;;;3.40;1.90;;;18.70;99.90;;;;;;4179111;28;20049;-56
2024/04/05 08:44:15;;;;;;;5.72;2.70;;;18.30;99.90;;;;;;4178721;28;20029;-57
2024/04/05 08:46:16;;;;;;;7.05;2.90;;;17.90;99.90;;;;;;4179526;28;20041;-56
2024/04/05 08:48:21;;;;;;;3.70;2.10;;;17.60;99.90;;;;;;4178676;28;20041;-57
2024/04/05 08:50:24;;;;;;;6.60;2.33;;;17.30;99.90;;;;;;4178992;28;20091;-52
2024/04/05 08:52:25;;;;;;;5.25;1.92;;;17.10;99.90;;;;;;4178610;28;20036;-58
2024/04/05 08:54:33;;;;;;;3.97;1.60;;;17.00;99.90;;;;;;4179446;28;20416;-54
2024/04/05 08:56:35;;;;;;;5.40;1.83;;;16.90;99.90;;;;;;4177526;28;20120;-52
2024/04/05 08:58:37;;;;;;;2.85;1.80;;;16.90;99.90;;;;;;4179799;28;20033;-56
2024/04/05 09:00:39;;;;;;;3.40;1.80;;;16.90;99.90;;;;;;4178116;28;20041;-54
2024/04/05 09:02:43;;;;;;;3.80;1.67;;;17.20;99.90;;;;;;4178742;28;20049;-55
2024/04/05 09:04:44;;;;;;;4.53;1.60;;;17.30;99.90;;;;;;4177835;28;20087;-54
2024/04/05 09:06:45;;;;;;;3.80;1.80;;;17.50;99.90;;;;;;4178630;28;20037;-54
2024/04/05 09:08:50;;;;;;;3.22;1.70;;;17.40;99.90;;;;;;4178954;28;20475;-56
2024/04/05 09:10:51;;;;;;;2.80;1.60;;;17.40;99.90;;;;;;4178357;28;20044;-57
2024/04/05 09:12:54;;;;;;;2.40;1.77;;;17.50;99.90;;;;;;4178614;28;20044;-56
2024/04/05 09:14:59;;;;;;;5.05;1.27;;;17.70;99.90;;;;;;4178152;28;20025;-55
2024/04/05 09:17:00;;;;;;;3.50;1.33;;;18.20;99.90;;;;;;4179023;28;20086;-56
2024/04/05 09:19:08;;;;;;;2.95;1.30;;;18.20;99.90;;;;;;4178136;28;20074;-57
2024/04/05 09:21:11;;;;;;;3.63;1.73;;;18.40;99.90;;;;;;4179208;28;20150;-56
2024/04/05 09:23:12;;;;;;;3.25;1.23;;;18.10;99.90;;;;;;4177357;28;20025;-59
2024/04/05 09:25:15;;;;;;;1.23;0.80;;;18.10;99.90;;;;;;4179081;28;20386;-57
2024/04/05 09:27:20;;;;;;;2.47;1.00;;;18.10;99.90;;;;;;4177809;28;20407;-58
2024/04/05 09:29:22;;;;;;;2.08;1.30;;;18.00;99.90;;;;;;4177897;28;20048;-55
2024/04/05 09:31:24;;;;;;;1.88;1.15;;;17.90;99.90;;;;;;4177812;28;20135;-56
2024/04/05 09:33:25;;;;;;;2.08;1.05;;;17.70;99.90;;;;;;4179095;28;20169;-59
2024/04/05 09:35:28;;;;;;;3.50;1.35;;;17.70;99.90;;;;;;4177968;28;20029;-57
2024/04/05 09:37:29;;;;;;;1.25;1.00;;;17.20;99.90;;;;;;4177985;28;20059;-57
2024/04/05 09:39:31;;;;;;;3.42;1.20;;;17.00;99.90;;;;;;4177624;28;20086;-54
2024/04/05 09:41:34;;;;;;;4.45;1.33;;;17.00;99.90;;;;;;4178807;28;20029;-54
2024/04/05 09:43:37;;;;;;;2.60;1.15;;;16.90;99.90;;;;;;4177177;28;20029;-56
2024/04/05 09:45:40;;;;;;;3.72;1.13;;;16.90;99.90;;;;;;4178297;28;20032;-55
2024/04/05 09:47:42;;;;;;;4.15;1.20;;;17.00;99.90;;;;;;4178185;28;20155;-59
2024/04/05 09:49:44;;;;;;;3.78;1.13;;;17.30;99.90;;;;;;4177149;28;20351;-57
2024/04/05 09:51:46;;;;;;;4.53;1.10;;;17.60;99.90;;;;;;4177731;28;20460;-59
2024/04/05 09:53:48;;;;;;;1.95;1.00;;;17.90;99.90;;;;;;4177620;28;20048;-56
2024/04/05 09:55:57;;;;;;;2.83;0.90;;;17.90;99.90;;;;;;4178078;28;20110;-54
2024/04/05 09:57:59;;;;;;;2.30;0.98;;;17.90;99.90;;;;;;4177578;28;20029;-55
2024/04/05 10:00:09;;;;;;;4.97;1.40;;;17.90;99.90;;;;;;4178125;28;20037;-58
2024/04/05 10:02:10;;;;;;;1.10;0.80;;;17.90;99.90;;;;;;4175313;28;20049;-55
2024/04/05 10:04:13;;;;;;;2.25;0.88;;;17.90;99.90;;;;;;4178440;28;20527;-55
2024/04/05 10:06:15;;;;;;;1.92;0.93;;;18.00;99.90;;;;;;4176519;28;20477;-54
2024/04/05 10:08:17;;;;;;;3.58;0.98;;;18.20;99.90;;;;;;4178403;28;20060;-58
2024/04/05 10:10:28;;;;;;;1.98;0.70;;;18.10;99.90;;;;;;4176842;28;20075;-60
2024/04/05 10:12:30;;;;;;;5.05;1.10;;;18.00;99.90;;;;;;4177706;28;20087;-58
2024/04/05 10:14:36;;;;;;;1.65;0.82;;;18.10;99.90;;;;;;4176965;28;20033;-57
2024/04/05 10:16:37;;;;;;;3.53;0.90;;;18.20;99.90;;;;;;4177674;28;20028;-56
2024/04/05 10:18:39;;;;;;;1.02;0.85;;;17.90;99.90;;;;;;4176792;28;20392;-57
2024/04/05 10:20:40;;;;;;;3.00;1.30;;;17.70;99.90;;;;;;4178390;28;20082;-55
2024/04/05 10:22:43;;;;;;;2.85;1.50;;;17.50;99.90;;;;;;4176743;28;20025;-57
2024/04/05 10:24:44;;;;;;;2.00;1.20;;;17.20;99.90;;;;;;4176878;28;20033;-53
2024/04/05 10:26:52;;;;;;;3.95;1.27;;;17.10;99.90;;;;;;4176611;28;20481;-58
2024/04/05 10:29:04;;;;;;;2.10;1.27;;;17.20;99.90;;;;;;4177183;28;20037;-57
2024/04/05 10:31:10;;;;;;;1.52;1.13;;;17.20;99.90;;;;;;4176785;28;20115;-54
2024/04/05 10:33:18;;;;;;;1.90;1.10;;;17.20;99.90;;;;;;4176862;28;20760;-53
2024/04/05 10:35:19;;;;;;;1.50;1.15;;;17.10;99.90;;;;;;4176594;28;20399;-58